createdAt,value
2022-08-07T00:00:18.510Z,0.21
2022-08-07T00:01:43.464Z,0.31
2022-08-07T00:02:35.787Z,0.12
2022-08-07T00:03:19.816Z,0.32
2022-08-07T00:04:24.395Z,0.3
2022-08-07T00:05:23.545Z,0.2
2022-08-07T00:06:29.340Z,0.29
2022-08-07T00:07:23.833Z,0.06
2022-08-07T00:08:24.796Z,0.1
2022-08-07T00:09:34.371Z,0.18
2022-08-07T00:10:29.887Z,0.07
2022-08-07T00:11:29.832Z,0.45
2022-08-07T00:12:28.814Z,0.22
2022-08-07T00:13:29.933Z,0.25
2022-08-07T00:14:31.612Z,0.24
2022-08-07T00:15:35.846Z,0.42
2022-08-07T00:16:34.954Z,0.28
2022-08-07T00:17:35.962Z,0.19
2022-08-07T00:18:36.796Z,0.34
2022-08-07T00:20:00.776Z,0.19
2022-08-07T00:20:38.835Z,0.19
2022-08-07T00:21:55.620Z,0.13
2022-08-07T00:22:40.853Z,0.3
2022-08-07T00:23:41.853Z,0.12
2022-08-07T00:24:42.817Z,0.16
2022-08-07T00:25:43.813Z,0.25
2022-08-07T00:26:48.972Z,0.74
2022-08-07T00:27:52.096Z,0.39
2022-08-07T00:28:55.515Z,0.17
2022-08-07T00:29:47.834Z,0.11
2022-08-07T00:30:48.873Z,0.24
2022-08-07T00:31:51.254Z,0.26
2022-08-07T00:32:50.794Z,0.09
2022-08-07T00:33:51.833Z,0.33
2022-08-07T00:34:52.774Z,0
2022-08-07T00:35:53.881Z,0
2022-08-07T00:36:54.882Z,0.27
2022-08-07T00:37:55.854Z,0.14
2022-08-07T00:38:56.889Z,0.21
2022-08-07T00:39:57.891Z,0.15
2022-08-07T00:40:58.793Z,0
2022-08-07T00:42:02.636Z,0.36
2022-08-07T00:43:01.334Z,0.09
2022-08-07T00:44:03.096Z,0.29
2022-08-07T00:45:06.754Z,0.13
2022-08-07T00:46:05.934Z,0.13
2022-08-07T00:47:15.701Z,0
2022-08-07T00:48:10.797Z,0
2022-08-07T00:49:08.795Z,0
2022-08-07T00:50:17.217Z,0
2022-08-07T00:51:10.894Z,0.19
2022-08-07T00:52:11.857Z,0
2022-08-07T00:53:12.837Z,0
2022-08-07T00:54:13.874Z,0
2022-08-07T00:55:17.223Z,0
2022-08-07T00:56:15.983Z,0
2022-08-07T00:57:16.834Z,0
2022-08-07T00:58:17.814Z,0
2022-08-07T00:59:19.994Z,0
2022-08-07T01:00:19.834Z,0
2022-08-07T01:04:21.649Z,0
2022-08-07T01:05:18.724Z,0
2022-08-07T01:06:17.793Z,0.19
2022-08-07T01:07:18.830Z,0
2022-08-07T01:08:20.273Z,0
2022-08-07T01:09:35.593Z,0
2022-08-07T01:10:22.813Z,0
2022-08-07T01:12:05.249Z,0
2022-08-07T01:12:29.387Z,0
2022-08-07T01:13:25.851Z,0
2022-08-07T01:14:28.208Z,0
2022-08-07T01:15:36.173Z,0
2022-08-07T01:16:30.175Z,0.31
2022-08-07T01:17:30.198Z,0
2022-08-07T01:18:30.883Z,0
2022-08-07T01:19:32.370Z,0
2022-08-07T01:20:34.029Z,0.13
2022-08-07T01:21:36.872Z,0.22
2022-08-07T01:22:36.790Z,0.24
2022-08-07T01:23:38.802Z,0.16
2022-08-07T01:24:38.811Z,0.07
2022-08-07T01:25:54.984Z,0.11
2022-08-07T01:26:40.951Z,0
2022-08-07T01:27:50.930Z,0
2022-08-07T01:28:45.766Z,0
2022-08-07T01:29:46.934Z,0
2022-08-07T01:30:48.091Z,0
2022-08-07T01:31:49.985Z,0
2022-08-07T01:32:50.911Z,0
2022-08-07T01:33:53.842Z,0
2022-08-07T01:34:52.816Z,0
2022-08-07T01:36:06.082Z,0
2022-08-07T01:36:57.789Z,0
2022-08-07T01:37:55.991Z,0
2022-08-07T01:38:57.073Z,0
2022-08-07T01:39:57.921Z,0
2022-08-07T01:40:58.878Z,0
2022-08-07T01:42:07.843Z,0
2022-08-07T01:43:01.426Z,0
2022-08-07T01:44:02.974Z,0
2022-08-07T01:45:03.871Z,0
2022-08-07T01:46:04.871Z,0.11
2022-08-07T01:47:14.244Z,0
2022-08-07T01:48:18.840Z,0.13
2022-08-07T01:49:08.217Z,0
2022-08-07T01:50:08.921Z,0
2022-08-07T01:51:24.865Z,0
2022-08-07T01:52:10.851Z,0
2022-08-07T01:53:20.767Z,0
2022-08-07T01:54:33.436Z,0.25
2022-08-07T01:55:22.102Z,0
2022-08-07T01:56:14.892Z,0.23
2022-08-07T01:57:30.987Z,0.27
2022-08-07T01:58:27.595Z,0.12
2022-08-07T01:59:18.899Z,0
2022-08-07T02:00:19.871Z,0.18
2022-08-07T02:01:25.735Z,0.28
2022-08-07T02:02:33.143Z,0.08
2022-08-07T02:03:25.022Z,0.16
2022-08-07T02:04:23.937Z,0.14
2022-08-07T02:05:43.519Z,0.22
2022-08-07T02:06:31.094Z,0.26
2022-08-07T02:07:27.118Z,0
2022-08-07T02:08:27.957Z,0
2022-08-07T02:09:33.671Z,0.17
2022-08-07T02:10:29.932Z,0.06
2022-08-07T02:11:57.812Z,0
2022-08-07T02:12:31.994Z,0.12
2022-08-07T02:13:56.974Z,0.16
2022-08-07T02:14:36.418Z,0.27
2022-08-07T02:15:36.001Z,0.27
2022-08-07T02:16:36.931Z,0.2
2022-08-07T02:17:37.893Z,0.14
2022-08-07T02:18:45.290Z,0
2022-08-07T02:20:05.965Z,0
2022-08-07T02:20:41.895Z,0
2022-08-07T02:21:55.756Z,0
2022-08-07T02:22:43.990Z,0
2022-08-07T02:23:44.930Z,0
2022-08-07T02:24:45.912Z,0
2022-08-07T02:26:11.112Z,0
2022-08-07T02:26:47.831Z,0
2022-08-07T02:27:51.365Z,0
2022-08-07T02:28:49.912Z,0
2022-08-07T02:29:54.418Z,0
2022-08-07T02:30:51.953Z,0
2022-08-07T02:31:53.539Z,0
2022-08-07T02:33:00.294Z,0
2022-08-07T02:33:57.442Z,0
2022-08-07T02:34:55.991Z,0
2022-08-07T02:36:27.610Z,0
2022-08-07T02:36:57.954Z,0
2022-08-07T02:37:58.912Z,0
2022-08-07T02:39:00.012Z,0
2022-08-07T02:40:01.814Z,0
2022-08-07T02:41:02.250Z,0
2022-08-07T02:42:02.871Z,0
2022-08-07T02:43:07.852Z,0
2022-08-07T02:44:05.144Z,0
2022-08-07T02:45:07.380Z,0
2022-08-07T02:46:06.912Z,0
2022-08-07T02:47:09.012Z,0
2022-08-07T02:48:10.143Z,0
2022-08-07T02:49:10.873Z,0
2022-08-07T02:50:18.503Z,0
2022-08-07T02:51:29.164Z,0
2022-08-07T02:52:21.357Z,0
2022-08-07T02:53:21.973Z,0
2022-08-07T02:54:25.140Z,0
2022-08-07T02:55:28.184Z,0
2022-08-07T02:56:24.931Z,0
2022-08-07T02:57:28.778Z,0
2022-08-07T02:58:27.154Z,0
2022-08-07T02:59:27.952Z,0
2022-08-07T03:00:30.183Z,0
2022-08-07T03:01:34.976Z,0
2022-08-07T03:02:30.933Z,0
2022-08-07T03:03:42.354Z,0
2022-08-07T03:04:32.951Z,0
2022-08-07T03:05:35.822Z,0
2022-08-07T03:06:34.987Z,0
2022-08-07T03:07:43.395Z,0
2022-08-07T03:08:36.973Z,0
2022-08-07T03:09:42.603Z,0
2022-08-07T03:10:40.587Z,0
2022-08-07T03:11:52.042Z,0
2022-08-07T03:12:40.912Z,0
2022-08-07T03:13:49.348Z,0
2022-08-07T03:14:43.094Z,0
2022-08-07T03:15:48.105Z,0
2022-08-07T03:16:45.172Z,0
2022-08-07T03:17:53.111Z,0
2022-08-07T03:18:48.973Z,0
2022-08-07T03:19:52.188Z,0
2022-08-07T03:20:50.911Z,0
2022-08-07T03:21:52.092Z,0
2022-08-07T03:22:52.931Z,0
2022-08-07T03:24:18.751Z,0
2022-08-07T03:24:55.001Z,0
2022-08-07T03:25:56.755Z,0
2022-08-07T03:26:58.666Z,0
2022-08-07T03:27:59.847Z,0
2022-08-07T03:28:58.952Z,0
2022-08-07T03:30:00.180Z,0
2022-08-07T03:31:01.904Z,0
2022-08-07T03:32:02.973Z,0
2022-08-07T03:33:04.051Z,0
2022-08-07T03:34:05.912Z,0
2022-08-07T03:35:17.194Z,0
2022-08-07T03:36:08.994Z,0
2022-08-07T03:37:12.045Z,0
2022-08-07T03:38:10.991Z,0
2022-08-07T03:39:12.008Z,0
2022-08-07T03:40:14.821Z,0
2022-08-07T03:41:13.973Z,0
2022-08-07T03:42:14.893Z,0
2022-08-07T03:43:15.997Z,0
2022-08-07T03:44:16.961Z,0
2022-08-07T03:45:20.919Z,0
2022-08-07T03:46:18.937Z,0
2022-08-07T03:47:19.952Z,0
2022-08-07T03:48:20.950Z,0
2022-08-07T03:49:21.933Z,0
2022-08-07T03:50:23.277Z,0
2022-08-07T03:51:23.992Z,0
2022-08-07T03:52:26.272Z,0
2022-08-07T03:53:30.201Z,0
2022-08-07T03:54:33.582Z,0
2022-08-07T03:55:53.209Z,0
2022-08-07T03:56:32.933Z,0
2022-08-07T03:58:09.092Z,0
2022-08-07T03:58:35.591Z,0
2022-08-07T03:59:31.954Z,0
2022-08-07T04:00:33.498Z,0
2022-08-07T04:01:33.987Z,0
2022-08-07T04:02:34.973Z,0
2022-08-07T04:03:38.959Z,0
2022-08-07T04:04:38.052Z,0
2022-08-07T04:05:40.722Z,0
2022-08-07T04:06:40.972Z,0
2022-08-07T04:07:42.583Z,0
2022-08-07T04:08:42.979Z,0
2022-08-07T04:09:44.958Z,0
2022-08-07T04:10:53.736Z,0
2022-08-07T04:12:21.019Z,0
2022-08-07T04:12:49.210Z,0
2022-08-07T04:14:09.728Z,0
2022-08-07T04:14:51.901Z,0
2022-08-07T04:15:52.884Z,0
2022-08-07T04:16:58.083Z,0
2022-08-07T04:18:31.655Z,0
2022-08-07T04:18:58.846Z,0
2022-08-07T04:19:56.973Z,0
2022-08-07T04:20:57.973Z,0
2022-08-07T04:22:05.529Z,0
2022-08-07T04:23:01.697Z,0
2022-08-07T04:24:06.080Z,0
2022-08-07T04:25:03.048Z,0
2022-08-07T04:26:03.996Z,0
2022-08-07T04:27:04.993Z,0
2022-08-07T04:28:05.994Z,0
2022-08-07T04:29:06.952Z,0
2022-08-07T04:30:10.370Z,0
2022-08-07T04:31:08.992Z,0
2022-08-07T04:32:10.782Z,0
2022-08-07T04:33:13.957Z,0
2022-08-07T04:34:16.334Z,0
2022-08-07T04:35:12.961Z,0
2022-08-07T04:36:14.092Z,0
2022-08-07T04:37:15.313Z,0
2022-08-07T04:38:16.092Z,0
2022-08-07T04:39:17.579Z,0
2022-08-07T04:40:18.115Z,0
2022-08-07T04:41:20.013Z,0
2022-08-07T04:42:20.993Z,0
2022-08-07T04:43:22.005Z,0
2022-08-07T04:44:22.978Z,0
2022-08-07T04:45:44.692Z,0
2022-08-07T04:46:25.899Z,0
2022-08-07T04:47:57.485Z,0
2022-08-07T04:48:26.972Z,0
2022-08-07T04:49:27.974Z,0
2022-08-07T04:50:29.093Z,0
2022-08-07T04:51:31.911Z,0
2022-08-07T04:52:30.995Z,0
2022-08-07T04:53:40.040Z,0
2022-08-07T04:54:33.440Z,0
2022-08-07T04:58:08.426Z,0
2022-08-07T04:58:09.213Z,0
2022-08-07T04:58:09.286Z,0
2022-08-07T04:59:08.056Z,0
2022-08-07T05:00:08.368Z,0
2022-08-07T05:00:41.155Z,0
2022-08-07T05:01:43.101Z,0
2022-08-07T05:02:45.115Z,0
2022-08-07T05:04:00.792Z,0
2022-08-07T05:04:47.156Z,0.23
2022-08-07T05:05:52.506Z,0
2022-08-07T05:06:51.448Z,0
2022-08-07T05:07:51.656Z,0
2022-08-07T05:09:00.298Z,0
2022-08-07T05:09:53.148Z,0
2022-08-07T05:10:58.512Z,0
2022-08-07T05:11:56.584Z,0
2022-08-07T05:12:58.569Z,0
2022-08-07T05:14:44.996Z,0
2022-08-07T05:14:59.319Z,0
2022-08-07T05:15:59.129Z,0
2022-08-07T05:17:01.132Z,0
2022-08-07T05:18:06.128Z,0
2022-08-07T05:19:05.012Z,0
2022-08-07T05:20:09.551Z,0.19
2022-08-07T05:21:07.113Z,0.18
2022-08-07T05:22:07.974Z,0
2022-08-07T05:23:15.394Z,0
2022-08-07T05:24:10.086Z,0
2022-08-07T05:25:11.643Z,0
2022-08-07T05:26:18.461Z,0
2022-08-07T05:27:14.609Z,0
2022-08-07T05:28:16.557Z,0
2022-08-07T05:29:15.018Z,0
2022-08-07T05:30:16.253Z,0
2022-08-07T05:31:18.054Z,0
2022-08-07T05:32:19.231Z,0
2022-08-07T05:33:21.510Z,0
2022-08-07T05:34:26.270Z,0
2022-08-07T05:35:33.284Z,0
2022-08-07T05:36:30.425Z,0
2022-08-07T05:37:26.616Z,0
2022-08-07T05:38:58.704Z,0
2022-08-07T05:40:06.135Z,0
2022-08-07T05:40:28.756Z,0
2022-08-07T05:41:46.820Z,0.14
2022-08-07T05:42:33.579Z,0
2022-08-07T05:43:43.302Z,0
2022-08-07T05:44:32.033Z,0.42
2022-08-07T05:45:47.169Z,0.1
2022-08-07T05:46:35.094Z,0
2022-08-07T05:47:37.967Z,0
2022-08-07T05:48:37.055Z,0
2022-08-07T05:49:40.692Z,0.35
2022-08-07T05:50:39.470Z,0
2022-08-07T05:51:40.678Z,0
2022-08-07T05:52:41.074Z,0
2022-08-07T05:54:08.952Z,0
2022-08-07T05:54:44.680Z,0
2022-08-07T05:56:01.804Z,0.3
2022-08-07T05:56:46.052Z,0
2022-08-07T05:57:47.052Z,0
2022-08-07T05:58:49.388Z,0
2022-08-07T05:59:55.705Z,0
2022-08-07T06:00:50.869Z,0.18
2022-08-07T06:01:51.116Z,0.11
2022-08-07T06:02:52.112Z,0
2022-08-07T06:03:54.157Z,0.34
2022-08-07T06:04:54.052Z,0.23
2022-08-07T06:05:56.489Z,0
2022-08-07T06:06:56.572Z,0.07
2022-08-07T06:08:05.505Z,0.14
2022-08-07T06:08:58.237Z,0
2022-08-07T06:10:03.919Z,0
2022-08-07T06:11:00.115Z,0.09
2022-08-07T06:12:01.012Z,0
2022-08-07T06:13:02.370Z,0
2022-08-07T06:14:11.254Z,0
2022-08-07T06:15:05.986Z,0
2022-08-07T06:16:07.051Z,0.14
2022-08-07T06:17:08.013Z,0
2022-08-07T06:18:08.992Z,0.22
2022-08-07T06:19:17.759Z,0.11
2022-08-07T06:20:12.516Z,0.11
2022-08-07T06:22:12.601Z,0.08
2022-08-07T06:22:22.758Z,0.27
2022-08-07T06:23:25.360Z,0
2022-08-07T06:24:37.365Z,0
2022-08-07T06:25:20.053Z,0.18
2022-08-07T06:26:21.044Z,0.13
2022-08-07T06:27:22.885Z,0
2022-08-07T06:28:27.270Z,0.11
2022-08-07T06:29:24.072Z,0
2022-08-07T06:30:32.395Z,0.15
2022-08-07T06:31:38.691Z,0.32
2022-08-07T06:32:29.349Z,0.73
2022-08-07T06:33:29.632Z,0.22
2022-08-07T06:34:30.443Z,0
2022-08-07T06:35:39.245Z,0
2022-08-07T06:36:35.111Z,0.23
2022-08-07T06:37:43.756Z,0.28
2022-08-07T06:38:35.352Z,0.13
2022-08-07T06:40:14.178Z,0.27
2022-08-07T06:40:38.066Z,0.26
2022-08-07T06:41:47.660Z,0.12
2022-08-07T06:42:40.053Z,0.35
2022-08-07T06:43:46.328Z,0.32
2022-08-07T06:44:43.094Z,0.24
2022-08-07T06:45:44.396Z,0
2022-08-07T06:46:53.438Z,0.06
2022-08-07T06:47:48.442Z,0.46
2022-08-07T06:48:47.092Z,0.27
2022-08-07T06:49:51.396Z,0.16
2022-08-07T06:50:49.195Z,0.32
2022-08-07T06:51:51.032Z,0.33
2022-08-07T06:52:52.845Z,0.11
2022-08-07T06:54:12.368Z,0.14
2022-08-07T06:55:30.423Z,0.42
2022-08-07T06:56:00.583Z,0.51
2022-08-07T06:56:58.052Z,0
2022-08-07T06:57:59.371Z,0
2022-08-07T07:00:10.994Z,0.24
2022-08-07T07:00:11.081Z,0
2022-08-07T07:01:02.933Z,0
2022-08-07T07:02:04.214Z,0
2022-08-07T07:03:08.546Z,0
2022-08-07T07:04:28.758Z,0.86
2022-08-07T07:05:07.034Z,0.14
2022-08-07T07:06:11.147Z,0.23
2022-08-07T07:07:10.596Z,0
2022-08-07T07:08:12.390Z,0.16
2022-08-07T07:09:11.039Z,0
2022-08-07T07:10:12.034Z,0
2022-08-07T07:12:07.014Z,0.4
2022-08-07T07:12:18.053Z,0.71
2022-08-07T07:13:15.152Z,1.19
2022-08-07T07:14:17.251Z,0.28
2022-08-07T07:15:23.708Z,1.2
2022-08-07T07:16:20.977Z,1.35
2022-08-07T07:17:22.051Z,1.07
2022-08-07T07:18:47.662Z,0.64
2022-08-07T07:19:41.055Z,0.61
2022-08-07T07:20:25.016Z,0.5
2022-08-07T07:21:27.117Z,1.14
2022-08-07T07:22:34.500Z,1.35
2022-08-07T07:24:05.257Z,0.43
2022-08-07T07:24:29.077Z,0.72
2022-08-07T07:26:30.915Z,0.8
2022-08-07T07:26:37.064Z,0.79
2022-08-07T07:27:35.442Z,0.64
2022-08-07T07:28:42.297Z,1.37
2022-08-07T07:29:40.844Z,1.11
2022-08-07T07:30:38.226Z,0.27
2022-08-07T07:31:39.738Z,0.12
2022-08-07T07:32:40.010Z,0.24
2022-08-07T07:33:41.034Z,0
2022-08-07T07:34:42.041Z,1.06
2022-08-07T07:35:43.901Z,0.67
2022-08-07T07:36:47.739Z,1.14
2022-08-07T07:37:49.853Z,2.06
2022-08-07T07:38:48.252Z,1.87
2022-08-07T07:39:52.129Z,1.39
2022-08-07T07:40:52.073Z,0.52
2022-08-07T07:42:02.373Z,1.8
2022-08-07T07:42:55.539Z,1.34
2022-08-07T07:44:15.003Z,0.58
2022-08-07T07:44:55.999Z,0.7
2022-08-07T07:46:38.643Z,0.51
2022-08-07T07:47:04.503Z,0.89
2022-08-07T07:47:59.067Z,0.19
2022-08-07T07:49:09.036Z,0.93
2022-08-07T07:50:31.997Z,1.06
2022-08-07T07:51:02.227Z,1.76
2022-08-07T07:52:03.370Z,2.43
2022-08-07T07:53:04.113Z,2.09
2022-08-07T07:54:05.132Z,1.63
2022-08-07T07:55:06.096Z,0.99
2022-08-07T07:56:07.092Z,0.61
2022-08-07T07:57:08.153Z,1.27
2022-08-07T07:58:09.072Z,1.65
2022-08-07T07:59:10.012Z,1.51
2022-08-07T08:00:11.073Z,1.58
2022-08-07T08:02:01.131Z,1.59
2022-08-07T08:02:14.163Z,2.03
2022-08-07T08:03:16.460Z,0.32
2022-08-07T08:04:16.185Z,0.29
2022-08-07T08:05:17.053Z,0.82
2022-08-07T08:06:18.068Z,0.72
2022-08-07T08:07:19.974Z,0.82
2022-08-07T08:08:34.132Z,1.67
2022-08-07T08:09:22.678Z,0.95
2022-08-07T08:10:35.762Z,0.55
2022-08-07T08:11:47.441Z,2.03
2022-08-07T08:12:50.306Z,2.24
2022-08-07T08:13:33.341Z,2.23
2022-08-07T08:14:28.031Z,1.11
2022-08-07T08:15:29.267Z,1.32
2022-08-07T08:16:31.320Z,0.81
2022-08-07T08:17:56.881Z,1.28
2022-08-07T08:18:33.087Z,1.3
2022-08-07T08:20:16.449Z,1.08
2022-08-07T08:20:36.442Z,1.41
2022-08-07T08:21:55.581Z,2.13
2022-08-07T08:22:38.169Z,1.3
2022-08-07T08:23:39.072Z,1.56
2022-08-07T08:24:44.716Z,1.49
2022-08-07T08:25:42.113Z,2.05
2022-08-07T08:26:42.054Z,1.26
2022-08-07T08:27:43.891Z,1.91
2022-08-07T08:28:45.212Z,1.22
2022-08-07T08:29:45.249Z,1.16
2022-08-07T08:30:50.923Z,1.72
2022-08-07T08:31:59.380Z,0.29
2022-08-07T08:32:49.287Z,0.26
2022-08-07T08:33:55.596Z,1.09
2022-08-07T08:34:52.192Z,1.45
2022-08-07T08:35:53.311Z,1.71
2022-08-07T08:36:56.335Z,2.11
2022-08-07T08:38:00.045Z,2.23
2022-08-07T08:38:57.063Z,1.89
2022-08-07T08:39:58.561Z,2.16
2022-08-07T08:40:59.192Z,2.03
2022-08-07T08:42:00.113Z,2.11
2022-08-07T08:43:01.132Z,3.03
2022-08-07T08:44:02.071Z,2.26
2022-08-07T08:45:04.144Z,1.39
2022-08-07T08:46:04.311Z,1.19
2022-08-07T08:47:06.211Z,1.79
2022-08-07T08:48:07.192Z,2.04
2022-08-07T08:49:08.071Z,2.58
2022-08-07T08:50:09.091Z,1.8
2022-08-07T08:51:14.446Z,1.48
2022-08-07T08:52:13.532Z,0.91
2022-08-07T08:53:12.074Z,1.02
2022-08-07T08:54:13.084Z,0.94
2022-08-07T08:55:20.923Z,0.32
2022-08-07T08:56:16.902Z,0
2022-08-07T08:57:17.172Z,0.74
2022-08-07T08:58:20.230Z,2.95
2022-08-07T08:59:19.223Z,2.37
2022-08-07T09:00:20.317Z,2.22
2022-08-07T09:01:22.186Z,1.27
2022-08-07T09:02:34.554Z,1.3
2022-08-07T09:03:47.831Z,0.15
2022-08-07T09:04:25.826Z,1.07
2022-08-07T09:05:32.255Z,1.16
2022-08-07T09:06:27.312Z,0.52
2022-08-07T09:07:29.713Z,1.3
2022-08-07T09:08:31.392Z,1.59
2022-08-07T09:09:36.686Z,0.58
2022-08-07T09:10:35.212Z,0.45
2022-08-07T09:11:43.839Z,0.11
2022-08-07T09:12:39.107Z,0.78
2022-08-07T09:13:40.252Z,1.3
2022-08-07T09:14:41.036Z,2.05
2022-08-07T09:16:20.842Z,2.42
2022-08-07T09:16:43.178Z,1.41
2022-08-07T09:17:58.850Z,0.87
2022-08-07T09:18:47.445Z,1.98
2022-08-07T09:19:52.401Z,1.08
2022-08-07T09:20:58.192Z,0.62
2022-08-07T09:21:58.384Z,1.22
2022-08-07T09:24:29.835Z,1.56
2022-08-07T09:24:30.170Z,2.34
2022-08-07T09:24:58.696Z,0.88
2022-08-07T09:25:58.202Z,0.51
2022-08-07T09:26:59.132Z,0.94
2022-08-07T09:28:01.865Z,2.2
2022-08-07T09:30:02.513Z,2.42
2022-08-07T09:30:08.190Z,1.27
2022-08-07T09:31:03.207Z,0.45
2022-08-07T09:32:04.311Z,0.77
2022-08-07T09:33:16.919Z,1.75
2022-08-07T09:34:07.151Z,0.88
2022-08-07T09:36:01.616Z,2.23
2022-08-07T09:36:09.612Z,1.23
2022-08-07T09:37:10.172Z,1.77
2022-08-07T09:38:11.171Z,0.9
2022-08-07T09:39:52.445Z,0.17
2022-08-07T09:40:14.303Z,0.24
2022-08-07T09:41:16.251Z,0.81
2022-08-07T09:42:22.810Z,0.51
2022-08-07T09:43:20.859Z,0.82
2022-08-07T09:44:30.173Z,0.67
2022-08-07T09:46:28.957Z,2.36
2022-08-07T09:47:26.487Z,1.68
2022-08-07T09:47:52.909Z,1.04
2022-08-07T09:48:29.894Z,0.27
2022-08-07T09:49:59.857Z,1.07
2022-08-07T09:50:30.376Z,2.21
2022-08-07T09:52:11.189Z,2.56
2022-08-07T09:52:35.220Z,2.19
2022-08-07T09:53:40.651Z,1.47
2022-08-07T09:54:38.113Z,1.94
2022-08-07T09:56:03.002Z,1.45
2022-08-07T09:56:41.889Z,1.45
2022-08-07T09:57:46.598Z,0.5
2022-08-07T09:58:42.618Z,0.08
2022-08-07T09:59:46.603Z,0.93
2022-08-07T10:00:45.091Z,2.12
2022-08-07T10:01:50.667Z,0.37
2022-08-07T10:02:53.645Z,0.22
2022-08-07T10:04:04.463Z,0.48
2022-08-07T10:04:53.284Z,1.48
2022-08-07T10:05:59.925Z,2.48
2022-08-07T10:06:53.954Z,1.48
2022-08-07T10:07:55.411Z,1.61
2022-08-07T10:08:54.209Z,1.71
2022-08-07T10:09:59.557Z,1.41
2022-08-07T10:11:17.416Z,1.35
2022-08-07T10:12:00.872Z,1.72
2022-08-07T10:12:59.272Z,1.63
2022-08-07T10:14:02.259Z,1.87
2022-08-07T10:15:01.274Z,1.57
2022-08-07T10:16:02.291Z,1.59
2022-08-07T10:17:03.152Z,1.31
2022-08-07T10:18:04.335Z,1.15
2022-08-07T10:19:09.610Z,1.02
2022-08-07T10:20:08.395Z,0.84
2022-08-07T10:21:20.145Z,1.39
2022-08-07T10:22:14.048Z,2.02
2022-08-07T10:23:12.188Z,1.51
2022-08-07T10:24:16.015Z,2.29
2022-08-07T10:25:14.258Z,2.25
2022-08-07T10:26:15.234Z,0.91
2022-08-07T10:27:16.312Z,1.86
2022-08-07T10:28:17.240Z,1.16
2022-08-07T10:29:18.191Z,1.78
2022-08-07T10:30:19.271Z,2.15
2022-08-07T10:31:20.312Z,3.29
2022-08-07T10:32:37.205Z,2.55
2022-08-07T10:33:23.568Z,1.16
2022-08-07T10:34:27.154Z,0.74
2022-08-07T10:35:25.621Z,0.81
2022-08-07T10:36:29.505Z,0.36
2022-08-07T10:37:48.529Z,1.45
2022-08-07T10:38:35.567Z,3.09
2022-08-07T10:39:41.141Z,1.48
2022-08-07T10:40:33.316Z,0.96
2022-08-07T10:41:47.715Z,0.55
2022-08-07T10:42:36.728Z,1.32
2022-08-07T10:43:36.260Z,0.98
2022-08-07T10:44:38.999Z,1.7
2022-08-07T10:45:45.488Z,1.45
2022-08-07T10:46:40.294Z,2.67
2022-08-07T10:47:50.742Z,1.9
2022-08-07T10:48:42.167Z,0.51
2022-08-07T10:49:45.193Z,0.66
2022-08-07T10:50:50.062Z,0.74
2022-08-07T10:51:57.859Z,0.32
2022-08-07T10:52:48.586Z,1.24
2022-08-07T10:53:49.281Z,0.83
2022-08-07T10:54:53.321Z,0.24
2022-08-07T10:55:53.385Z,0.81
2022-08-07T10:56:54.271Z,0.89
2022-08-07T10:57:56.224Z,0.73
2022-08-07T10:58:56.715Z,0.89
2022-08-07T10:59:57.312Z,1.73
2022-08-07T11:00:59.314Z,1.27
2022-08-07T11:02:02.796Z,1.52
2022-08-07T11:03:01.220Z,1.31
2022-08-07T11:04:16.894Z,1.27
2022-08-07T11:05:05.480Z,1.28
2022-08-07T11:06:04.835Z,1.86
2022-08-07T11:07:05.299Z,1.42
2022-08-07T11:08:07.602Z,0.79
2022-08-07T11:09:11.178Z,0.91
2022-08-07T11:10:11.412Z,2.28
2022-08-07T11:11:12.108Z,1.71
2022-08-07T11:12:13.200Z,1.68
2022-08-07T11:13:16.758Z,0.65
2022-08-07T11:14:42.884Z,1.6
2022-08-07T11:15:17.873Z,2
2022-08-07T11:16:19.586Z,0.4
2022-08-07T11:17:23.040Z,1.69
2022-08-07T11:18:21.279Z,3.22
2022-08-07T11:19:27.162Z,0.65
2022-08-07T11:20:24.462Z,1.78
2022-08-07T11:21:24.182Z,0.81
2022-08-07T11:22:27.262Z,0.98
2022-08-07T11:23:30.469Z,2.04
2022-08-07T11:24:28.392Z,4.03
2022-08-07T11:25:30.411Z,1.76
2022-08-07T11:26:32.359Z,0.44
2022-08-07T11:28:02.195Z,0.21
2022-08-07T11:28:36.349Z,0.25
2022-08-07T11:29:41.658Z,1.33
2022-08-07T11:30:41.599Z,0.92
2022-08-07T11:31:41.171Z,2.37
2022-08-07T11:32:42.251Z,1.2
2022-08-07T11:33:54.549Z,1.06
2022-08-07T11:34:44.252Z,1.01
2022-08-07T11:35:59.343Z,1.18
2022-08-07T11:36:46.359Z,0.83
2022-08-07T11:37:57.616Z,0.72
2022-08-07T11:38:50.463Z,2.9
2022-08-07T11:39:56.847Z,3.19
2022-08-07T11:40:53.251Z,2.67
2022-08-07T11:42:00.624Z,2.4
2022-08-07T11:42:55.312Z,1.71
2022-08-07T11:44:11.257Z,1.59
2022-08-07T11:44:58.125Z,1.93
2022-08-07T11:45:59.391Z,1.21
2022-08-07T11:47:01.272Z,0.6
2022-08-07T11:48:05.049Z,1.09
2022-08-07T11:49:28.859Z,1.16
2022-08-07T11:50:18.909Z,1.2
2022-08-07T11:51:09.177Z,1.43
2022-08-07T11:52:07.375Z,1.19
2022-08-07T11:53:08.274Z,0.64
2022-08-07T11:54:10.321Z,0.42
2022-08-07T11:55:13.255Z,0.39
2022-08-07T11:56:25.394Z,0.85
2022-08-07T11:57:12.699Z,0.35
2022-08-07T11:58:16.390Z,0.29
2022-08-07T11:59:22.117Z,0.91
2022-08-07T12:00:19.514Z,0.68
2022-08-07T12:01:20.089Z,0.81
2022-08-07T12:02:20.815Z,0.59
2022-08-07T12:03:41.173Z,2.21
2022-08-07T12:04:22.311Z,1.62
2022-08-07T12:05:28.992Z,0.4
2022-08-07T12:06:36.554Z,1.23
2022-08-07T12:07:27.763Z,0.29
2022-08-07T12:08:31.996Z,1.56
2022-08-07T12:09:27.420Z,1.72
2022-08-07T12:10:29.432Z,1.5
2022-08-07T12:11:32.337Z,3.01
2022-08-07T12:12:32.232Z,2.55
2022-08-07T12:13:35.766Z,2.28
2022-08-07T12:14:34.279Z,3.07
2022-08-07T12:16:05.100Z,1.81
2022-08-07T12:16:37.350Z,1.37
2022-08-07T12:17:38.574Z,1.28
2022-08-07T12:18:39.292Z,2.21
2022-08-07T12:19:56.908Z,2.67
2022-08-07T12:20:41.411Z,3.22
2022-08-07T12:21:56.154Z,0.81
2022-08-07T12:22:47.432Z,1.87
2022-08-07T12:24:05.231Z,2.17
2022-08-07T12:24:52.375Z,0.95
2022-08-07T12:26:00.975Z,1.56
2022-08-07T12:26:50.350Z,0.84
2022-08-07T12:28:04.250Z,1.5
2022-08-07T12:28:53.913Z,0.99
2022-08-07T12:29:54.321Z,0.77
2022-08-07T12:30:55.503Z,1.16
2022-08-07T12:32:02.366Z,1.71
2022-08-07T12:32:59.343Z,1.63
2022-08-07T12:34:01.591Z,1.21
2022-08-07T12:35:01.351Z,1.11
2022-08-07T12:36:02.545Z,1.18
2022-08-07T12:37:08.349Z,0.92
2022-08-07T12:38:08.924Z,2.45
2022-08-07T12:39:09.581Z,1.23
2022-08-07T12:40:14.881Z,1.7
2022-08-07T12:41:09.796Z,1.64
2022-08-07T12:42:12.150Z,1.9
2022-08-07T12:43:12.291Z,1.82
2022-08-07T12:44:13.331Z,2.12
2022-08-07T12:45:14.319Z,0.62
2022-08-07T12:46:15.768Z,0.52
2022-08-07T12:47:21.294Z,2.34
2022-08-07T12:48:28.153Z,1.98
2022-08-07T12:49:26.020Z,1
2022-08-07T12:50:33.701Z,1.74
2022-08-07T12:51:20.312Z,0.84
2022-08-07T12:52:21.403Z,0.85
2022-08-07T12:53:23.319Z,1.61
2022-08-07T12:54:37.624Z,1.07
2022-08-07T12:55:40.902Z,1.1
2022-08-07T12:56:27.431Z,0.32
2022-08-07T12:57:29.959Z,0.17
2022-08-07T12:58:35.163Z,1.24
2022-08-07T12:59:53.781Z,1.48
2022-08-07T13:00:35.783Z,3.31
2022-08-07T13:01:35.468Z,3.91
2022-08-07T13:02:47.123Z,2.88
2022-08-07T13:03:53.689Z,3.77
2022-08-07T13:04:49.267Z,1.58
2022-08-07T13:06:02.155Z,2.13
2022-08-07T13:06:54.609Z,2.2
2022-08-07T13:08:13.136Z,2.19
2022-08-07T13:08:55.347Z,1.59
2022-08-07T13:10:20.268Z,1.6
2022-08-07T13:10:57.332Z,0.42
2022-08-07T13:12:02.863Z,0.58
2022-08-07T13:12:59.312Z,1.34
2022-08-07T13:14:00.293Z,0.49
2022-08-07T13:15:01.214Z,1.52
2022-08-07T13:16:02.304Z,2.03
2022-08-07T13:17:03.400Z,0.59
2022-08-07T13:18:05.425Z,2.39
2022-08-07T13:19:11.341Z,1.71
2022-08-07T13:20:08.351Z,1.73
2022-08-07T13:21:09.420Z,1.08
2022-08-07T13:22:12.590Z,1.37
2022-08-07T13:24:00.348Z,0.99
2022-08-07T13:24:15.486Z,1.05
2022-08-07T13:25:24.011Z,1.3
2022-08-07T13:26:18.498Z,0.35
2022-08-07T13:27:20.598Z,0.65
2022-08-07T13:28:24.071Z,0.12
2022-08-07T13:29:21.393Z,0.41
2022-08-07T13:30:39.766Z,0.66
2022-08-07T13:31:24.272Z,1.29
2022-08-07T13:32:31.503Z,0.66
2022-08-07T13:34:32.362Z,0.64
2022-08-07T13:34:32.555Z,0.37
2022-08-07T13:35:59.356Z,1.24
2022-08-07T13:36:29.271Z,1.15
2022-08-07T13:37:30.314Z,1.2
2022-08-07T13:38:31.439Z,0.68
2022-08-07T13:39:49.891Z,0.5
2022-08-07T13:40:42.591Z,0.33
2022-08-07T13:41:35.371Z,0.7
2022-08-07T13:42:39.296Z,2.94
2022-08-07T13:43:37.291Z,1.98
2022-08-07T13:44:38.731Z,1.91
2022-08-07T13:46:07.458Z,1.55
2022-08-07T13:46:49.119Z,1.19
2022-08-07T13:48:05.714Z,2.02
2022-08-07T13:48:43.332Z,1.34
2022-08-07T13:50:31.808Z,1.36
2022-08-07T13:50:55.720Z,0.43
2022-08-07T13:52:04.660Z,1.12
2022-08-07T13:52:47.293Z,0.92
2022-08-07T13:53:55.446Z,1.46
2022-08-07T13:54:49.586Z,1.49
2022-08-07T13:55:54.508Z,1.17
2022-08-07T13:56:51.873Z,0.76
2022-08-07T13:57:59.391Z,1.1
2022-08-07T13:58:56.662Z,1.25
2022-08-07T13:59:55.096Z,0.88
2022-08-07T14:00:55.419Z,0.62
2022-08-07T14:01:59.360Z,0.37
2022-08-07T14:02:58.695Z,0.91
2022-08-07T14:04:05.881Z,1.34
2022-08-07T14:05:00.422Z,1.66
2022-08-07T14:06:01.331Z,2.23
2022-08-07T14:07:02.492Z,1.45
2022-08-07T14:08:04.370Z,0.97
2022-08-07T14:09:05.332Z,0.8